Kelleys Island, Ohio
Current Conditions -  °F | °C
As of 9:13 PM on Sunday 25 Jan 2015 (Local Time) from KPCW Reporting Station
Light Rain Light Rain  
Wind Chill:   Ceiling: 2300
Heat Index: 21°   Visibility: 10mi
Dew Point: 14°   Wind: 12mph
Humidity: 74%   Direction: 40°NE
Pressure: 29.91"   Gusts: NA
Location:  41.6°N, 82.71°W
Report Text: KPCW 260213Z AUTO 04010KT 10SM -RA BKN023 OVC029 M06/M10 A2991 RMK AO2
Loading
Personal Weather Stations






























Interactive Weather Map New forecast layout! Learn more

10-Day Weather Forecast

Advertisements
Track Severe Weather on mobile